sensor_id;sensor_type;location;lat;lon;timestamp;pressure;altitude;pressure_sealevel;temperature;humidity
49216;BME280;45943;53.148;8.204;2023-11-22T00:00:10;102885.81;;;7.94;100.00
49216;BME280;45943;53.148;8.204;2023-11-22T00:02:37;102886.00;;;7.89;100.00
49216;BME280;45943;53.148;8.204;2023-11-22T00:05:04;102895.91;;;7.86;100.00
49216;BME280;45943;53.148;8.204;2023-11-22T00:07:31;102897.84;;;7.82;100.00
49216;BME280;45943;53.148;8.204;2023-11-22T00:09:58;102898.88;;;7.78;100.00
49216;BME280;45943;53.148;8.204;2023-11-22T00:12:24;102906.03;;;7.78;100.00
49216;BME280;45943;53.148;8.204;2023-11-22T00:14:51;102901.81;;;7.70;100.00
49216;BME280;45943;53.148;8.204;2023-11-22T00:17:17;102903.75;;;7.65;100.00
49216;BME280;45943;53.148;8.204;2023-11-22T00:19:43;102900.13;;;7.68;100.00
49216;BME280;45943;53.148;8.204;2023-11-22T00:22:10;102901.00;;;7.68;100.00
49216;BME280;45943;53.148;8.204;2023-11-22T00:24:40;102903.69;;;7.67;100.00
49216;BME280;45943;53.148;8.204;2023-11-22T00:27:07;102905.69;;;7.62;100.00
49216;BME280;45943;53.148;8.204;2023-11-22T00:29:33;102901.38;;;7.58;100.00
49216;BME280;45943;53.148;8.204;2023-11-22T00:32:00;102891.50;;;7.60;100.00
49216;BME280;45943;53.148;8.204;2023-11-22T00:34:26;102882.72;;;7.56;100.00
49216;BME280;45943;53.148;8.204;2023-11-22T00:36:52;102883.72;;;7.54;100.00
49216;BME280;45943;53.148;8.204;2023-11-22T00:39:18;102894.38;;;7.54;100.00
49216;BME280;45943;53.148;8.204;2023-11-22T00:41:44;102904.09;;;7.56;100.00
49216;BME280;45943;53.148;8.204;2023-11-22T00:44:11;102905.94;;;7.54;100.00
49216;BME280;45943;53.148;8.204;2023-11-22T00:46:38;102907.13;;;7.45;100.00
49216;BME280;45943;53.148;8.204;2023-11-22T00:49:04;102914.38;;;7.42;100.00
49216;BME280;45943;53.148;8.204;2023-11-22T00:51:30;102913.47;;;7.43;100.00
49216;BME280;45943;53.148;8.204;2023-11-22T00:53:57;102918.78;;;7.43;100.00
49216;BME280;45943;53.148;8.204;2023-11-22T00:56:24;102929.53;;;7.41;100.00
49216;BME280;45943;53.148;8.204;2023-11-22T00:58:50;102939.28;;;7.42;100.00
49216;BME280;45943;53.148;8.204;2023-11-22T01:01:19;102933.84;;;7.45;100.00
49216;BME280;45943;53.148;8.204;2023-11-22T01:03:45;102938.53;;;7.39;100.00
49216;BME280;45943;53.148;8.204;2023-11-22T01:06:12;102929.84;;;7.32;100.00
49216;BME280;45943;53.148;8.204;2023-11-22T01:08:39;102922.69;;;7.33;100.00
49216;BME280;45943;53.148;8.204;2023-11-22T01:11:05;102917.41;;;7.31;100.00
49216;BME280;45943;53.148;8.204;2023-11-22T01:13:31;102913.81;;;7.32;100.00
49216;BME280;45943;53.148;8.204;2023-11-22T01:16:00;102915.50;;;7.35;100.00
49216;BME280;45943;53.148;8.204;2023-11-22T01:18:27;102919.22;;;7.31;100.00
49216;BME280;45943;53.148;8.204;2023-11-22T01:20:53;102930.88;;;7.28;100.00
49216;BME280;45943;53.148;8.204;2023-11-22T01:23:19;102938.09;;;7.25;100.00
49216;BME280;45943;53.148;8.204;2023-11-22T01:25:45;102944.31;;;7.25;100.00
49216;BME280;45943;53.148;8.204;2023-11-22T01:28:11;102943.59;;;7.20;100.00
49216;BME280;45943;53.148;8.204;2023-11-22T01:30:37;102946.22;;;7.22;100.00
49216;BME280;45943;53.148;8.204;2023-11-22T01:33:04;102943.59;;;7.20;100.00
49216;BME280;45943;53.148;8.204;2023-11-22T01:35:30;102956.13;;;7.18;100.00
49216;BME280;45943;53.148;8.204;2023-11-22T01:37:56;102950.75;;;7.19;100.00
49216;BME280;45943;53.148;8.204;2023-11-22T01:40:23;102960.50;;;7.21;100.00
49216;BME280;45943;53.148;8.204;2023-11-22T01:42:51;102960.53;;;7.19;100.00
49216;BME280;45943;53.148;8.204;2023-11-22T01:45:17;102961.59;;;7.13;100.00
49216;BME280;45943;53.148;8.204;2023-11-22T01:47:44;102965.31;;;7.09;100.00
49216;BME280;45943;53.148;8.204;2023-11-22T01:50:10;102977.03;;;7.04;100.00
49216;BME280;45943;53.148;8.204;2023-11-22T01:52:36;102972.56;;;7.04;100.00
49216;BME280;45943;53.148;8.204;2023-11-22T01:55:04;102975.34;;;7.01;100.00
49216;BME280;45943;53.148;8.204;2023-11-22T01:57:31;102976.25;;;7.00;100.00
49216;BME280;45943;53.148;8.204;2023-11-22T02:00:00;102976.31;;;6.99;100.00
49216;BME280;45943;53.148;8.204;2023-11-22T02:02:30;102984.34;;;6.97;100.00
49216;BME280;45943;53.148;8.204;2023-11-22T02:04:57;102996.00;;;6.95;100.00
49216;BME280;45943;53.148;8.204;2023-11-22T02:07:23;102986.13;;;6.98;100.00
49216;BME280;45943;53.148;8.204;2023-11-22T02:09:49;102987.88;;;6.99;100.00
49216;BME280;45943;53.148;8.204;2023-11-22T02:12:15;102979.00;;;6.99;100.00
49216;BME280;45943;53.148;8.204;2023-11-22T02:14:41;102980.00;;;6.95;100.00
49216;BME280;45943;53.148;8.204;2023-11-22T02:17:07;102968.44;;;6.94;100.00
49216;BME280;45943;53.148;8.204;2023-11-22T02:19:33;102957.78;;;6.94;100.00
49216;BME280;45943;53.148;8.204;2023-11-22T02:21:59;102953.34;;;6.93;100.00
49216;BME280;45943;53.148;8.204;2023-11-22T02:24:25;102959.63;;;6.92;100.00
49216;BME280;45943;53.148;8.204;2023-11-22T02:26:52;102964.91;;;6.94;100.00
49216;BME280;45943;53.148;8.204;2023-11-22T02:29:18;102966.69;;;6.93;100.00
49216;BME280;45943;53.148;8.204;2023-11-22T02:31:45;102968.38;;;6.96;100.00
49216;BME280;45943;53.148;8.204;2023-11-22T02:34:11;102968.34;;;6.97;100.00
49216;BME280;45943;53.148;8.204;2023-11-22T02:36:37;102979.94;;;6.96;100.00
49216;BME280;45943;53.148;8.204;2023-11-22T02:39:03;102982.72;;;6.93;100.00
49216;BME280;45943;53.148;8.204;2023-11-22T02:41:30;102973.94;;;6.89;100.00
49216;BME280;45943;53.148;8.204;2023-11-22T02:43:56;102976.59;;;6.89;100.00
49216;BME280;45943;53.148;8.204;2023-11-22T02:46:22;102978.47;;;6.86;100.00
49216;BME280;45943;53.148;8.204;2023-11-22T02:48:49;102976.72;;;6.85;100.00
49216;BME280;45943;53.148;8.204;2023-11-22T02:51:15;102974.06;;;6.85;100.00
49216;BME280;45943;53.148;8.204;2023-11-22T02:53:42;102987.44;;;6.83;100.00
49216;BME280;45943;53.148;8.204;2023-11-22T02:56:11;102975.09;;;6.81;100.00
49216;BME280;45943;53.148;8.204;2023-11-22T02:58:37;102975.25;;;6.75;100.00
49216;BME280;45943;53.148;8.204;2023-11-22T03:01:03;102978.97;;;6.71;100.00
49216;BME280;45943;53.148;8.204;2023-11-22T03:03:29;102964.94;;;6.64;100.00
49216;BME280;45943;53.148;8.204;2023-11-22T03:05:55;102969.38;;;6.64;100.00
49216;BME280;45943;53.148;8.204;2023-11-22T03:08:21;102971.88;;;6.70;100.00
49216;BME280;45943;53.148;8.204;2023-11-22T03:10:47;102973.56;;;6.72;100.00
49216;BME280;45943;53.148;8.204;2023-11-22T03:13:13;102976.28;;;6.71;100.00
49216;BME280;45943;53.148;8.204;2023-11-22T03:15:39;102981.69;;;6.68;100.00
49216;BME280;45943;53.148;8.204;2023-11-22T03:18:05;102992.41;;;6.66;100.00
49216;BME280;45943;53.148;8.204;2023-11-22T03:20:32;103007.50;;;6.67;100.00
49216;BME280;45943;53.148;8.204;2023-11-22T03:22:59;103008.28;;;6.71;100.00
49216;BME280;45943;53.148;8.204;2023-11-22T03:25:25;103008.97;;;6.77;100.00
49216;BME280;45943;53.148;8.204;2023-11-22T03:27:51;103019.56;;;6.80;100.00
49216;BME280;45943;53.148;8.204;2023-11-22T03:30:17;103024.78;;;6.83;100.00
49216;BME280;45943;53.148;8.204;2023-11-22T03:32:43;103029.31;;;6.81;100.00
49216;BME280;45943;53.148;8.204;2023-11-22T03:35:10;103032.94;;;6.79;100.00
49216;BME280;45943;53.148;8.204;2023-11-22T03:37:36;103029.38;;;6.80;100.00
49216;BME280;45943;53.148;8.204;2023-11-22T03:40:02;103024.03;;;6.78;100.00
49216;BME280;45943;53.148;8.204;2023-11-22T03:42:28;103036.75;;;6.70;100.00
49216;BME280;45943;53.148;8.204;2023-11-22T03:44:54;103048.47;;;6.65;100.00
49216;BME280;45943;53.148;8.204;2023-11-22T03:47:20;103053.03;;;6.61;100.00
49216;BME280;45943;53.148;8.204;2023-11-22T03:49:47;103059.34;;;6.57;100.00
49216;BME280;45943;53.148;8.204;2023-11-22T03:52:12;103054.94;;;6.56;100.00
49216;BME280;45943;53.148;8.204;2023-11-22T03:54:39;103049.59;;;6.56;100.00
49216;BME280;45943;53.148;8.204;2023-11-22T03:57:05;103038.88;;;6.57;100.00
49216;BME280;45943;53.148;8.204;2023-11-22T03:59:31;103043.44;;;6.54;100.00
49216;BME280;45943;53.148;8.204;2023-11-22T04:01:59;103037.34;;;6.50;100.00
49216;BME280;45943;53.148;8.204;2023-11-22T04:04:25;103023.91;;;6.53;100.00
49216;BME280;45943;53.148;8.204;2023-11-22T04:06:51;103027.53;;;6.51;100.00
49216;BME280;45943;53.148;8.204;2023-11-22T04:09:18;103017.03;;;6.45;100.00
49216;BME280;45943;53.148;8.204;2023-11-22T04:11:46;103015.28;;;6.44;100.00
49216;BME280;45943;53.148;8.204;2023-11-22T04:14:14;103011.66;;;6.46;100.00
49216;BME280;45943;53.148;8.204;2023-11-22T04:16:40;103015.13;;;6.50;100.00
49216;BME280;45943;53.148;8.204;2023-11-22T04:19:06;103007.91;;;6.53;100.00
49216;BME280;45943;53.148;8.204;2023-11-22T04:21:32;103023.75;;;6.58;100.00
49216;BME280;45943;53.148;8.204;2023-11-22T04:23:58;103028.16;;;6.60;100.00
49216;BME280;45943;53.148;8.204;2023-11-22T04:26:24;103029.06;;;6.59;100.00
49216;BME280;45943;53.148;8.204;2023-11-22T04:28:51;103030.00;;;6.57;100.00
49216;BME280;45943;53.148;8.204;2023-11-22T04:31:17;103035.44;;;6.54;100.00
49216;BME280;45943;53.148;8.204;2023-11-22T04:33:43;103038.09;;;6.54;100.00
49216;BME280;45943;53.148;8.204;2023-11-22T04:36:09;103033.84;;;6.47;100.00
49216;BME280;45943;53.148;8.204;2023-11-22T04:38:35;103046.31;;;6.46;100.00
49216;BME280;45943;53.148;8.204;2023-11-22T04:41:01;103041.84;;;6.47;100.00
49216;BME280;45943;53.148;8.204;2023-11-22T04:43:28;103051.75;;;6.43;100.00
49216;BME280;45943;53.148;8.204;2023-11-22T04:45:54;103050.81;;;6.44;100.00
49216;BME280;45943;53.148;8.204;2023-11-22T04:48:20;103066.69;;;6.49;100.00
49216;BME280;45943;53.148;8.204;2023-11-22T04:50:46;103074.66;;;6.50;100.00
49216;BME280;45943;53.148;8.204;2023-11-22T04:53:12;103080.94;;;6.48;100.00
49216;BME280;45943;53.148;8.204;2023-11-22T04:55:38;103083.78;;;6.42;100.00
49216;BME280;45943;53.148;8.204;2023-11-22T04:58:04;103089.16;;;6.40;100.00
49216;BME280;45943;53.148;8.204;2023-11-22T05:00:30;103100.75;;;6.39;100.00
49216;BME280;45943;53.148;8.204;2023-11-22T05:02:56;103107.94;;;6.36;100.00
49216;BME280;45943;53.148;8.204;2023-11-22T05:05:22;103093.00;;;6.30;100.00
49216;BME280;45943;53.148;8.204;2023-11-22T05:07:48;103085.00;;;6.28;100.00
49216;BME280;45943;53.148;8.204;2023-11-22T05:10:14;103085.88;;;6.29;100.00
49216;BME280;45943;53.148;8.204;2023-11-22T05:12:40;103075.22;;;6.30;100.00
49216;BME280;45943;53.148;8.204;2023-11-22T05:15:06;103069.97;;;6.26;100.00
49216;BME280;45943;53.148;8.204;2023-11-22T05:17:33;103074.63;;;6.18;100.00
49216;BME280;45943;53.148;8.204;2023-11-22T05:19:59;103066.63;;;6.18;100.00
49216;BME280;45943;53.148;8.204;2023-11-22T05:22:25;103054.38;;;6.12;100.00
49216;BME280;45943;53.148;8.204;2023-11-22T05:24:51;103048.22;;;6.09;100.00
49216;BME280;45943;53.148;8.204;2023-11-22T05:27:17;103047.22;;;6.14;100.00
49216;BME280;45943;53.148;8.204;2023-11-22T05:29:43;103049.72;;;6.20;100.00
49216;BME280;45943;53.148;8.204;2023-11-22T05:32:09;103046.88;;;6.26;100.00
49216;BME280;45943;53.148;8.204;2023-11-22T05:34:36;103049.47;;;6.28;100.00
49216;BME280;45943;53.148;8.204;2023-11-22T05:37:03;103043.41;;;6.23;100.00
49216;BME280;45943;53.148;8.204;2023-11-22T05:39:31;103041.72;;;6.20;100.00
49216;BME280;45943;53.148;8.204;2023-11-22T05:41:57;103047.94;;;6.21;100.00
49216;BME280;45943;53.148;8.204;2023-11-22T05:44:23;103054.13;;;6.21;100.00
49216;BME280;45943;53.148;8.204;2023-11-22T05:46:51;103063.00;;;6.22;100.00
49216;BME280;45943;53.148;8.204;2023-11-22T05:49:17;103054.91;;;6.25;100.00
49216;BME280;45943;53.148;8.204;2023-11-22T05:51:43;103065.63;;;6.23;100.00
49216;BME280;45943;53.148;8.204;2023-11-22T05:54:09;103070.19;;;6.18;100.00
49216;BME280;45943;53.148;8.204;2023-11-22T05:56:38;103077.47;;;6.12;100.00
49216;BME280;45943;53.148;8.204;2023-11-22T05:59:04;103075.66;;;6.14;100.00
49216;BME280;45943;53.148;8.204;2023-11-22T06:01:30;103079.03;;;6.19;100.00
49216;BME280;45943;53.148;8.204;2023-11-22T06:03:56;103072.88;;;6.17;100.00
49216;BME280;45943;53.148;8.204;2023-11-22T06:06:22;103080.97;;;6.14;100.00
49216;BME280;45943;53.148;8.204;2023-11-22T06:08:48;103065.84;;;6.14;100.00
49216;BME280;45943;53.148;8.204;2023-11-22T06:11:14;103059.56;;;6.17;100.00
49216;BME280;45943;53.148;8.204;2023-11-22T06:13:41;103061.41;;;6.15;100.00
49216;BME280;45943;53.148;8.204;2023-11-22T06:16:08;103054.56;;;6.04;100.00
49216;BME280;45943;53.148;8.204;2023-11-22T06:18:35;103066.81;;;6.12;100.00
49216;BME280;45943;53.148;8.204;2023-11-22T06:21:06;103068.75;;;6.05;100.00
49216;BME280;45943;53.148;8.204;2023-11-22T06:23:33;103067.28;;;5.93;100.00
49216;BME280;45943;53.148;8.204;2023-11-22T06:25:58;103074.31;;;5.96;100.00
49216;BME280;45943;53.148;8.204;2023-11-22T06:28:24;103067.50;;;5.84;100.00
49216;BME280;45943;53.148;8.204;2023-11-22T06:30:51;103063.25;;;5.75;100.00
49216;BME280;45943;53.148;8.204;2023-11-22T06:33:17;103072.97;;;5.78;100.00
49216;BME280;45943;53.148;8.204;2023-11-22T06:35:43;103070.25;;;5.81;100.00
49216;BME280;45943;53.148;8.204;2023-11-22T06:38:09;103072.78;;;5.86;100.00
49216;BME280;45943;53.148;8.204;2023-11-22T06:40:35;103080.66;;;5.92;100.00
49216;BME280;45943;53.148;8.204;2023-11-22T06:43:02;103091.09;;;6.01;100.00
49216;BME280;45943;53.148;8.204;2023-11-22T06:45:30;103095.53;;;5.99;100.00
49216;BME280;45943;53.148;8.204;2023-11-22T06:47:59;103106.84;;;6.09;100.00
49216;BME280;45943;53.148;8.204;2023-11-22T06:50:25;103109.97;;;5.92;100.00
49216;BME280;45943;53.148;8.204;2023-11-22T06:52:51;103117.25;;;5.82;100.00
49216;BME280;45943;53.148;8.204;2023-11-22T06:55:18;103110.19;;;5.80;100.00
49216;BME280;45943;53.148;8.204;2023-11-22T06:57:44;103098.88;;;5.71;100.00
49216;BME280;45943;53.148;8.204;2023-11-22T07:00:11;103090.69;;;5.79;100.00
49216;BME280;45943;53.148;8.204;2023-11-22T07:02:42;103081.78;;;5.82;100.00
49216;BME280;45943;53.148;8.204;2023-11-22T07:05:08;103087.06;;;5.83;100.00
49216;BME280;45943;53.148;8.204;2023-11-22T07:07:34;103101.34;;;5.79;100.00
49216;BME280;45943;53.148;8.204;2023-11-22T07:10:01;103096.97;;;5.76;100.00
49216;BME280;45943;53.148;8.204;2023-11-22T07:12:28;103091.81;;;5.69;100.00
49216;BME280;45943;53.148;8.204;2023-11-22T07:14:54;103098.84;;;5.73;100.00
49216;BME280;45943;53.148;8.204;2023-11-22T07:17:21;103106.69;;;5.78;100.00
49216;BME280;45943;53.148;8.204;2023-11-22T07:19:48;103115.31;;;5.90;100.00
49216;BME280;45943;53.148;8.204;2023-11-22T07:22:14;103117.50;;;6.09;100.00
49216;BME280;45943;53.148;8.204;2023-11-22T07:24:45;103116.34;;;6.20;100.00
49216;BME280;45943;53.148;8.204;2023-11-22T07:27:13;103110.19;;;6.17;100.00
49216;BME280;45943;53.148;8.204;2023-11-22T07:29:40;103097.19;;;6.04;100.00
49216;BME280;45943;53.148;8.204;2023-11-22T07:32:07;103097.34;;;5.98;100.00
49216;BME280;45943;53.148;8.204;2023-11-22T07:34:34;103096.59;;;5.93;100.00
49216;BME280;45943;53.148;8.204;2023-11-22T07:37:01;103093.06;;;5.90;100.00
49216;BME280;45943;53.148;8.204;2023-11-22T07:39:27;103100.22;;;5.91;100.00
49216;BME280;45943;53.148;8.204;2023-11-22T07:41:53;103092.38;;;5.83;100.00
49216;BME280;45943;53.148;8.204;2023-11-22T07:44:22;103103.03;;;5.83;100.00
49216;BME280;45943;53.148;8.204;2023-11-22T07:46:50;103105.81;;;5.77;100.00
49216;BME280;45943;53.148;8.204;2023-11-22T07:49:18;103119.72;;;5.90;100.00
49216;BME280;45943;53.148;8.204;2023-11-22T07:51:48;103116.84;;;6.00;100.00
49216;BME280;45943;53.148;8.204;2023-11-22T07:54:20;103115.75;;;6.08;100.00
49216;BME280;45943;53.148;8.204;2023-11-22T07:56:51;103131.88;;;6.03;100.00
49216;BME280;45943;53.148;8.204;2023-11-22T07:59:20;103131.75;;;6.08;100.00
49216;BME280;45943;53.148;8.204;2023-11-22T08:01:46;103128.94;;;6.14;100.00
49216;BME280;45943;53.148;8.204;2023-11-22T08:04:13;103133.13;;;6.24;100.00
49216;BME280;45943;53.148;8.204;2023-11-22T08:06:40;103135.81;;;6.22;100.00
49216;BME280;45943;53.148;8.204;2023-11-22T08:09:06;103139.69;;;6.09;100.00
49216;BME280;45943;53.148;8.204;2023-11-22T08:11:34;103132.94;;;5.96;100.00
49216;BME280;45943;53.148;8.204;2023-11-22T08:14:01;103134.81;;;5.92;100.00
49216;BME280;45943;53.148;8.204;2023-11-22T08:16:28;103138.22;;;5.97;100.00
49216;BME280;45943;53.148;8.204;2023-11-22T08:19:04;103160.44;;;5.96;100.00
49216;BME280;45943;53.148;8.204;2023-11-22T08:21:31;103151.47;;;6.00;100.00
49216;BME280;45943;53.148;8.204;2023-11-22T08:23:58;103140.75;;;6.03;100.00
49216;BME280;45943;53.148;8.204;2023-11-22T08:26:25;103138.00;;;6.07;100.00
49216;BME280;45943;53.148;8.204;2023-11-22T08:28:54;103137.81;;;6.14;100.00
49216;BME280;45943;53.148;8.204;2023-11-22T08:31:21;103126.88;;;6.25;100.00
49216;BME280;45943;53.148;8.204;2023-11-22T08:33:47;103126.81;;;6.26;100.00
49216;BME280;45943;53.148;8.204;2023-11-22T08:36:13;103139.38;;;6.23;100.00
49216;BME280;45943;53.148;8.204;2023-11-22T08:38:39;103131.13;;;6.32;100.00
49216;BME280;45943;53.148;8.204;2023-11-22T08:41:08;103126.44;;;6.42;100.00
49216;BME280;45943;53.148;8.204;2023-11-22T08:43:39;103119.94;;;6.52;100.00
49216;BME280;45943;53.148;8.204;2023-11-22T08:46:05;103115.13;;;6.32;100.00
49216;BME280;45943;53.148;8.204;2023-11-22T08:48:32;103105.34;;;6.32;100.00
49216;BME280;45943;53.148;8.204;2023-11-22T08:50:58;103103.22;;;6.45;100.00
49216;BME280;45943;53.148;8.204;2023-11-22T08:53:26;103113.53;;;6.59;100.00
49216;BME280;45943;53.148;8.204;2023-11-22T08:55:52;103121.53;;;6.57;100.00
49216;BME280;45943;53.148;8.204;2023-11-22T08:58:20;103121.44;;;6.62;100.00
49216;BME280;45943;53.148;8.204;2023-11-22T09:00:46;103118.00;;;6.57;100.00
49216;BME280;45943;53.148;8.204;2023-11-22T09:03:12;103124.31;;;6.54;100.00
49216;BME280;45943;53.148;8.204;2023-11-22T09:05:42;103137.19;;;6.37;100.00
49216;BME280;45943;53.148;8.204;2023-11-22T09:08:11;103130.13;;;6.36;100.00
49216;BME280;45943;53.148;8.204;2023-11-22T09:10:41;103118.78;;;6.28;100.00
49216;BME280;45943;53.148;8.204;2023-11-22T09:13:08;103123.03;;;6.35;100.00
49216;BME280;45943;53.148;8.204;2023-11-22T09:15:34;103137.78;;;6.48;100.00
49216;BME280;45943;53.148;8.204;2023-11-22T09:18:01;103148.22;;;6.57;100.00
49216;BME280;45943;53.148;8.204;2023-11-22T09:20:28;103158.19;;;6.51;100.00
49216;BME280;45943;53.148;8.204;2023-11-22T09:22:54;103155.19;;;6.63;100.00
49216;BME280;45943;53.148;8.204;2023-11-22T09:25:21;103152.09;;;6.78;100.00
49216;BME280;45943;53.148;8.204;2023-11-22T09:27:49;103157.81;;;6.96;100.00
49216;BME280;45943;53.148;8.204;2023-11-22T09:30:21;103151.47;;;7.01;100.00
49216;BME280;45943;53.148;8.204;2023-11-22T09:33:08;103151.75;;;6.90;100.00
49216;BME280;45943;53.148;8.204;2023-11-22T09:35:36;103144.59;;;6.93;100.00
49216;BME280;45943;53.148;8.204;2023-11-22T09:38:06;103148.03;;;6.96;100.00
49216;BME280;45943;53.148;8.204;2023-11-22T09:43:10;103152.22;;;7.05;100.00
49216;BME280;45943;53.148;8.204;2023-11-22T09:45:36;103150.53;;;7.02;100.00
49216;BME280;45943;53.148;8.204;2023-11-22T09:48:07;103151.81;;;6.87;100.00
49216;BME280;45943;53.148;8.204;2023-11-22T09:53:32;103154.34;;;6.61;100.00
49216;BME280;45943;53.148;8.204;2023-11-22T09:56:01;103159.34;;;6.73;100.00
49216;BME280;45943;53.148;8.204;2023-11-22T09:58:29;103150.19;;;6.83;100.00
49216;BME280;45943;53.148;8.204;2023-11-22T10:00:57;103150.88;;;6.90;100.00
49216;BME280;45943;53.148;8.204;2023-11-22T10:03:23;103141.91;;;6.93;100.00
49216;BME280;45943;53.148;8.204;2023-11-22T10:05:51;103131.56;;;6.82;100.00
49216;BME280;45943;53.148;8.204;2023-11-22T10:08:18;103133.81;;;6.65;100.00
49216;BME280;45943;53.148;8.204;2023-11-22T10:10:44;103127.50;;;6.69;100.00
49216;BME280;45943;53.148;8.204;2023-11-22T10:13:13;103125.56;;;6.74;100.00
49216;BME280;45943;53.148;8.204;2023-11-22T10:15:41;103128.94;;;6.80;100.00
49216;BME280;45943;53.148;8.204;2023-11-22T10:18:07;103140.28;;;6.87;100.00
49216;BME280;45943;53.148;8.204;2023-11-22T10:20:37;103138.47;;;6.89;100.00
49216;BME280;45943;53.148;8.204;2023-11-22T10:23:11;103143.53;;;6.98;100.00
49216;BME280;45943;53.148;8.204;2023-11-22T10:25:47;103140.91;;;6.97;100.00
49216;BME280;45943;53.148;8.204;2023-11-22T10:28:15;103149.22;;;6.86;100.00
49216;BME280;45943;53.148;8.204;2023-11-22T10:30:47;103138.63;;;6.83;100.00
49216;BME280;45943;53.148;8.204;2023-11-22T10:33:15;103129.81;;;6.81;100.00
49216;BME280;45943;53.148;8.204;2023-11-22T10:35:51;103133.91;;;6.93;100.00
49216;BME280;45943;53.148;8.204;2023-11-22T10:38:18;103128.25;;;7.03;100.00
49216;BME280;45943;53.148;8.204;2023-11-22T10:40:46;103131.94;;;6.99;100.00
49216;BME280;45943;53.148;8.204;2023-11-22T10:43:14;103125.44;;;7.09;100.00
49216;BME280;45943;53.148;8.204;2023-11-22T10:45:44;103131.59;;;7.11;100.00
49216;BME280;45943;53.148;8.204;2023-11-22T10:48:14;103116.28;;;7.18;100.00
49216;BME280;45943;53.148;8.204;2023-11-22T10:50:44;103109.44;;;7.08;100.00
49216;BME280;45943;53.148;8.204;2023-11-22T10:53:18;103111.81;;;7.17;100.00
49216;BME280;45943;53.148;8.204;2023-11-22T10:55:50;103088.78;;;7.14;100.00
49216;BME280;45943;53.148;8.204;2023-11-22T10:58:23;103075.81;;;7.02;100.00
49216;BME280;45943;53.148;8.204;2023-11-22T11:00:51;103065.97;;;7.04;100.00
49216;BME280;45943;53.148;8.204;2023-11-22T11:03:17;103060.44;;;6.81;100.00
49216;BME280;45943;53.148;8.204;2023-11-22T11:05:52;103049.22;;;6.99;100.00
49216;BME280;45943;53.148;8.204;2023-11-22T11:08:25;103043.47;;;7.13;100.00
49216;BME280;45943;53.148;8.204;2023-11-22T11:10:52;103029.00;;;7.20;100.00
49216;BME280;45943;53.148;8.204;2023-11-22T11:13:21;103007.25;;;7.04;100.00
49216;BME280;45943;53.148;8.204;2023-11-22T11:15:49;102998.03;;;7.14;100.00
49216;BME280;45943;53.148;8.204;2023-11-22T11:18:16;102977.84;;;7.06;100.00
49216;BME280;45943;53.148;8.204;2023-11-22T11:20:49;102970.44;;;7.15;100.00
49216;BME280;45943;53.148;8.204;2023-11-22T11:23:16;102957.28;;;7.09;100.00
49216;BME280;45943;53.148;8.204;2023-11-22T11:25:49;102948.66;;;7.29;100.00
49216;BME280;45943;53.148;8.204;2023-11-22T11:28:15;102947.38;;;7.13;100.00
49216;BME280;45943;53.148;8.204;2023-11-22T11:30:42;102937.53;;;7.15;100.00
49216;BME280;45943;53.148;8.204;2023-11-22T11:33:14;102931.69;;;7.30;100.00
49216;BME280;45943;53.148;8.204;2023-11-22T11:35:46;102924.03;;;7.46;100.00
49216;BME280;45943;53.148;8.204;2023-11-22T11:38:14;102915.31;;;7.41;100.00
49216;BME280;45943;53.148;8.204;2023-11-22T11:40:42;102908.84;;;7.48;100.00
49216;BME280;45943;53.148;8.204;2023-11-22T11:43:10;102895.75;;;7.40;100.00
49216;BME280;45943;53.148;8.204;2023-11-22T11:45:41;102892.28;;;7.37;100.00
49216;BME280;45943;53.148;8.204;2023-11-22T11:48:16;102882.84;;;7.28;100.00
49216;BME280;45943;53.148;8.204;2023-11-22T11:50:43;102882.28;;;7.17;100.00
49216;BME280;45943;53.148;8.204;2023-11-22T11:53:09;102892.34;;;7.35;99.82
49216;BME280;45943;53.148;8.204;2023-11-22T11:55:38;102889.38;;;7.44;97.26
49216;BME280;45943;53.148;8.204;2023-11-22T11:58:04;102893.13;;;7.64;95.59
49216;BME280;45943;53.148;8.204;2023-11-22T12:00:33;102905.56;;;7.90;92.08
49216;BME280;45943;53.148;8.204;2023-11-22T12:02:59;102893.97;;;7.91;85.73
49216;BME280;45943;53.148;8.204;2023-11-22T12:05:25;102897.41;;;8.18;85.26
49216;BME280;45943;53.148;8.204;2023-11-22T12:07:53;102878.41;;;8.49;79.47
49216;BME280;45943;53.148;8.204;2023-11-22T12:10:19;102884.28;;;8.58;75.26
49216;BME280;45943;53.148;8.204;2023-11-22T12:12:45;102885.72;;;8.44;72.42
49216;BME280;45943;53.148;8.204;2023-11-22T12:15:11;102883.13;;;8.42;71.01
49216;BME280;45943;53.148;8.204;2023-11-22T12:17:39;102878.13;;;8.56;71.19
49216;BME280;45943;53.148;8.204;2023-11-22T12:20:15;102882.03;;;8.48;68.19
49216;BME280;45943;53.148;8.204;2023-11-22T12:22:43;102869.59;;;8.47;69.30
49216;BME280;45943;53.148;8.204;2023-11-22T12:25:11;102869.41;;;8.51;69.02
49216;BME280;45943;53.148;8.204;2023-11-22T12:27:38;102871.06;;;8.30;67.67
49216;BME280;45943;53.148;8.204;2023-11-22T12:30:06;102879.50;;;8.20;67.89
49216;BME280;45943;53.148;8.204;2023-11-22T12:32:32;102874.97;;;8.22;66.21
49216;BME280;45943;53.148;8.204;2023-11-22T12:34:58;102871.09;;;8.07;65.09
49216;BME280;45943;53.148;8.204;2023-11-22T12:37:26;102891.19;;;8.17;66.79
49216;BME280;45943;53.148;8.204;2023-11-22T12:39:52;102876.13;;;8.15;64.68
49216;BME280;45943;53.148;8.204;2023-11-22T12:42:20;102887.69;;;8.15;63.33
49216;BME280;45943;53.148;8.204;2023-11-22T12:44:47;102894.16;;;8.10;63.09
49216;BME280;45943;53.148;8.204;2023-11-22T12:47:15;102899.66;;;8.05;62.69
49216;BME280;45943;53.148;8.204;2023-11-22T12:49:45;102897.56;;;8.13;63.64
49216;BME280;45943;53.148;8.204;2023-11-22T12:52:15;102891.19;;;8.17;64.12
49216;BME280;45943;53.148;8.204;2023-11-22T12:54:41;102895.09;;;8.09;63.61